Time;durP1;ratioP1;P1;durP2;ratioP2;P2;SDS_P1;SDS_P2;PMS_P1;PMS_P2;Temp;Humidity;BMP_temperature;BMP_pressure;BME280_temperature;BME280_humidity;BME280_pressure;Samples;Min_cycle;Max_cycle;Signal;HPM_P1;HPM_P2
2021/12/26 00:00:43;;;;;;;4.97;1.33;;;-3.50;73.70;;;;;;5058520;28;20567;-75
2021/12/26 00:03:11;;;;;;;2.88;1.10;;;-3.60;73.30;;;;;;5041715;28;20127;-75
2021/12/26 00:05:37;;;;;;;2.83;1.05;;;-3.60;73.60;;;;;;5058227;28;20455;-75
2021/12/26 00:08:02;;;;;;;3.28;1.20;;;-3.60;73.30;;;;;;5058443;28;20154;-75
2021/12/26 00:10:29;;;;;;;3.03;1.00;;;-3.70;73.50;;;;;;5058049;28;20504;-74
2021/12/26 00:12:56;;;;;;;3.17;1.08;;;-3.70;73.10;;;;;;5058116;28;20044;-74
2021/12/26 00:15:22;;;;;;;2.50;1.02;;;-3.70;72.90;;;;;;5058256;28;20044;-74
2021/12/26 00:17:47;;;;;;;4.90;1.05;;;-3.70;73.00;;;;;;5058026;28;20485;-75
2021/12/26 00:20:13;;;;;;;3.25;0.93;;;-3.70;72.90;;;;;;5057970;28;20044;-75
2021/12/26 00:22:40;;;;;;;4.60;1.50;;;-3.60;72.80;;;;;;5040963;28;20040;-75
2021/12/26 00:25:07;;;;;;;2.83;1.30;;;-3.70;72.70;;;;;;5057884;28;20076;-74
2021/12/26 00:27:33;;;;;;;1.92;1.10;;;-3.70;72.50;;;;;;5057905;28;20036;-75
2021/12/26 00:29:59;;;;;;;4.18;1.10;;;-3.70;73.00;;;;;;5057766;28;20102;-75
2021/12/26 00:32:25;;;;;;;1.90;0.90;;;-3.70;72.60;;;;;;5057662;28;20123;-75
2021/12/26 00:34:51;;;;;;;3.95;1.27;;;-3.80;72.40;;;;;;5057660;28;20048;-75
2021/12/26 00:37:18;;;;;;;4.25;1.13;;;-3.80;72.60;;;;;;5056978;28;20079;-75
2021/12/26 00:39:44;;;;;;;2.60;1.10;;;-3.80;71.70;;;;;;5057791;28;20044;-75
2021/12/26 00:42:10;;;;;;;2.55;1.10;;;-3.80;71.70;;;;;;5057681;28;20040;-75
2021/12/26 00:44:39;;;;;;;3.08;1.23;;;-3.80;71.70;;;;;;5040931;28;20549;-74
2021/12/26 00:47:07;;;;;;;2.85;1.05;;;-3.80;71.50;;;;;;5040816;28;20043;-74
2021/12/26 00:49:33;;;;;;;3.10;1.20;;;-3.80;71.60;;;;;;5040980;28;20426;-74
2021/12/26 00:51:59;;;;;;;5.80;1.27;;;-3.80;71.80;;;;;;5057350;28;20512;-74
2021/12/26 00:54:24;;;;;;;2.25;0.98;;;-3.80;71.40;;;;;;5057606;28;20040;-74
2021/12/26 00:56:50;;;;;;;2.92;1.27;;;-3.90;71.30;;;;;;5057278;28;20043;-74
2021/12/26 00:59:16;;;;;;;2.67;1.10;;;-3.90;71.30;;;;;;5057537;28;20048;-74
2021/12/26 01:01:42;;;;;;;3.55;1.23;;;-3.90;71.70;;;;;;5040425;28;20033;-74
2021/12/26 01:04:07;;;;;;;2.58;1.00;;;-4.00;71.80;;;;;;5057085;28;20032;-74
2021/12/26 01:06:33;;;;;;;5.00;1.55;;;-4.00;71.30;;;;;;5057129;28;20078;-74
2021/12/26 01:08:59;;;;;;;3.88;1.30;;;-4.00;71.60;;;;;;5057339;28;20408;-74
2021/12/26 01:11:37;;;;;;;2.70;1.38;;;-3.90;71.70;;;;;;5056975;28;20545;-74
2021/12/26 01:14:06;;;;;;;2.25;1.08;;;-4.00;72.00;;;;;;5057264;28;20416;-73
2021/12/26 01:16:32;;;;;;;3.65;1.30;;;-4.00;71.90;;;;;;5057005;28;20037;-75
2021/12/26 01:19:13;;;;;;;3.65;1.30;;;-4.00;72.00;;;;;;5056817;28;20040;-75
2021/12/26 01:21:41;;;;;;;3.50;1.13;;;-4.00;72.10;;;;;;5056828;28;20117;-74
2021/12/26 01:24:10;;;;;;;3.20;1.17;;;-4.00;72.00;;;;;;5056677;28;20037;-74
2021/12/26 01:26:36;;;;;;;2.40;1.00;;;-4.10;71.80;;;;;;5056705;28;20535;-74
2021/12/26 01:29:03;;;;;;;3.17;1.10;;;-4.00;71.80;;;;;;5040094;28;20040;-74
2021/12/26 01:31:28;;;;;;;2.97;1.00;;;-4.10;71.80;;;;;;5056655;28;20040;-74
2021/12/26 01:34:05;;;;;;;3.22;1.02;;;-4.10;71.50;;;;;;5056622;28;20048;-74
2021/12/26 01:36:33;;;;;;;2.42;1.00;;;-4.10;71.30;;;;;;5039953;28;20497;-74
2021/12/26 01:39:00;;;;;;;2.88;1.20;;;-4.10;71.80;;;;;;5056553;28;20040;-74
2021/12/26 01:41:26;;;;;;;3.08;1.15;;;-4.10;71.30;;;;;;5056504;28;20044;-74
2021/12/26 01:43:57;;;;;;;2.45;1.10;;;-4.10;71.80;;;;;;5039657;28;20048;-74
2021/12/26 01:46:26;;;;;;;4.03;1.00;;;-4.10;71.60;;;;;;5056373;28;20169;-74
2021/12/26 01:49:10;;;;;;;4.97;1.30;;;-4.20;71.70;;;;;;5055568;28;20036;-74
2021/12/26 01:51:36;;;;;;;3.00;1.00;;;-4.10;71.80;;;;;;5056268;28;20051;-74
2021/12/26 01:54:08;;;;;;;2.53;1.30;;;-4.10;71.70;;;;;;5056170;28;20040;-74
2021/12/26 01:56:34;;;;;;;2.78;1.23;;;-4.20;71.70;;;;;;5039556;28;20519;-74
2021/12/26 01:59:00;;;;;;;2.55;1.10;;;-4.20;71.60;;;;;;5057802;28;20044;-73
2021/12/26 02:01:26;;;;;;;4.57;1.30;;;-4.20;71.70;;;;;;5057794;28;20209;-73
2021/12/26 02:03:52;;;;;;;3.38;1.40;;;-4.20;71.40;;;;;;5056995;28;20524;-73
2021/12/26 02:06:18;;;;;;;4.05;1.13;;;-4.20;71.20;;;;;;5057350;28;20036;-73
2021/12/26 02:08:44;;;;;;;2.33;0.88;;;-4.20;70.90;;;;;;5057134;28;20074;-73
2021/12/26 02:11:10;;;;;;;3.10;1.50;;;-4.20;71.00;;;;;;5056835;28;20041;-73
2021/12/26 02:13:39;;;;;;;3.20;1.15;;;-4.20;71.10;;;;;;5075310;28;20039;-73
2021/12/26 02:16:08;;;;;;;4.95;1.15;;;-4.20;71.00;;;;;;5057075;28;20082;-73
2021/12/26 02:18:34;;;;;;;2.38;1.17;;;-4.20;70.60;;;;;;5040393;28;20083;-73
2021/12/26 02:21:36;;;;;;;4.53;1.35;;;-4.20;70.90;;;;;;5056975;28;20032;-73
2021/12/26 02:24:19;;;;;;;3.58;1.08;;;-4.20;71.00;;;;;;5040360;28;20050;-73
2021/12/26 02:29:28;;;;;;;4.05;1.20;;;-4.20;71.20;;;;;;5056895;28;20044;-73
2021/12/26 02:31:54;;;;;;;3.30;1.20;;;-4.30;71.10;;;;;;5056576;28;20041;-73
2021/12/26 02:34:20;;;;;;;2.35;1.00;;;-4.30;71.00;;;;;;5056652;28;20085;-73
2021/12/26 02:36:46;;;;;;;2.88;1.00;;;-4.30;71.40;;;;;;5056589;28;20032;-73
2021/12/26 02:39:11;;;;;;;2.47;1.15;;;-4.30;71.30;;;;;;5056726;28;20043;-73
2021/12/26 02:41:37;;;;;;;2.50;0.90;;;-4.30;71.70;;;;;;5040272;28;20041;-73
2021/12/26 02:44:03;;;;;;;3.00;1.30;;;-4.40;71.40;;;;;;5056422;28;20043;-73
2021/12/26 02:46:29;;;;;;;2.90;1.00;;;-4.40;71.50;;;;;;5056527;28;20455;-73
2021/12/26 02:48:54;;;;;;;3.33;1.35;;;-4.40;71.80;;;;;;5056941;28;20047;-73
2021/12/26 02:51:20;;;;;;;3.97;1.27;;;-4.40;71.80;;;;;;5056609;28;20485;-73
2021/12/26 02:53:47;;;;;;;3.00;1.20;;;-4.40;72.00;;;;;;5056381;28;20156;-73
2021/12/26 02:56:13;;;;;;;2.42;1.27;;;-4.40;72.00;;;;;;5056199;28;20086;-73
2021/12/26 02:58:38;;;;;;;2.60;1.27;;;-4.40;71.50;;;;;;5056861;28;20032;-73
2021/12/26 03:01:30;;;;;;;3.13;1.30;;;-4.40;71.90;;;;;;5056180;28;20501;-73
2021/12/26 03:03:56;;;;;;;2.50;1.20;;;-4.40;71.90;;;;;;5051538;28;20455;-73
2021/12/26 03:06:53;;;;;;;2.63;1.15;;;-4.50;71.80;;;;;;5056376;28;20178;-73
2021/12/26 03:09:07;;;;;;;2.70;1.20;;;-4.50;72.10;;;;;;5073753;28;20047;-73
2021/12/26 03:11:33;;;;;;;2.85;1.20;;;-4.50;71.80;;;;;;5039656;28;20037;-73
2021/12/26 03:14:00;;;;;;;2.47;1.33;;;-4.50;71.80;;;;;;5056440;28;20044;-73
2021/12/26 03:16:26;;;;;;;4.22;1.38;;;-4.50;71.90;;;;;;5056401;28;20408;-73
2021/12/26 03:18:59;;;;;;;2.92;1.35;;;-4.50;71.50;;;;;;5056249;28;20123;-73
2021/12/26 03:21:25;;;;;;;3.45;1.30;;;-4.50;71.70;;;;;;5039906;28;20094;-73
2021/12/26 03:23:51;;;;;;;2.35;1.20;;;-4.60;71.90;;;;;;5055825;28;20508;-73
2021/12/26 03:26:16;;;;;;;2.78;1.30;;;-4.50;71.90;;;;;;5039402;28;20037;-73
2021/12/26 03:28:42;;;;;;;2.58;1.23;;;-4.50;72.00;;;;;;5040379;28;20048;-73
2021/12/26 03:31:08;;;;;;;8.93;1.55;;;-4.50;72.20;;;;;;5056171;28;20409;-73
2021/12/26 03:33:34;;;;;;;2.55;1.20;;;-4.50;71.90;;;;;;5039368;28;20135;-73
2021/12/26 03:35:59;;;;;;;3.20;1.58;;;-4.50;71.90;;;;;;5039545;28;20475;-73
2021/12/26 03:38:29;;;;;;;3.28;1.50;;;-4.50;72.30;;;;;;5056335;28;20067;-73
2021/12/26 03:40:55;;;;;;;3.53;1.50;;;-4.50;72.10;;;;;;5039182;28;20032;-73
2021/12/26 03:43:22;;;;;;;3.65;1.30;;;-4.50;72.30;;;;;;5039380;28;20041;-73
2021/12/26 03:45:48;;;;;;;2.58;1.30;;;-4.60;72.40;;;;;;5055783;28;20059;-73
2021/12/26 03:48:15;;;;;;;3.75;1.35;;;-4.60;72.40;;;;;;5039283;28;20040;-73
2021/12/26 03:50:41;;;;;;;3.83;1.55;;;-4.60;72.00;;;;;;5039334;28;20485;-73
2021/12/26 03:53:11;;;;;;;4.03;1.52;;;-4.60;72.00;;;;;;5055719;28;20042;-73
2021/12/26 03:55:38;;;;;;;3.72;1.33;;;-4.70;72.20;;;;;;5039151;28;20044;-73
2021/12/26 03:58:04;;;;;;;4.68;1.40;;;-4.60;72.20;;;;;;5056138;28;20040;-73
2021/12/26 04:00:30;;;;;;;5.05;1.35;;;-4.60;72.40;;;;;;5039384;28;20123;-73
2021/12/26 04:02:56;;;;;;;4.72;1.50;;;-4.60;72.40;;;;;;5055830;28;20044;-73
2021/12/26 04:05:22;;;;;;;4.65;1.40;;;-4.60;72.30;;;;;;5055620;28;20075;-73
2021/12/26 04:07:48;;;;;;;4.22;1.45;;;-4.60;72.40;;;;;;5039150;28;20053;-73
2021/12/26 04:10:16;;;;;;;2.45;1.10;;;-4.70;72.50;;;;;;5055627;28;20040;-73
2021/12/26 04:12:47;;;;;;;2.13;1.10;;;-4.60;72.50;;;;;;5057189;28;20036;-73
2021/12/26 04:15:16;;;;;;;3.33;1.38;;;-4.70;72.50;;;;;;5058990;28;20098;-73
2021/12/26 04:17:42;;;;;;;5.30;1.67;;;-4.70;72.70;;;;;;5058902;28;20461;-73
2021/12/26 04:20:09;;;;;;;2.65;1.13;;;-4.70;72.80;;;;;;5042732;28;20048;-73
2021/12/26 04:22:35;;;;;;;3.22;1.40;;;-4.70;73.20;;;;;;5058896;28;20072;-73
2021/12/26 04:25:00;;;;;;;2.72;1.33;;;-4.70;72.90;;;;;;5058877;28;20059;-73
2021/12/26 04:27:26;;;;;;;4.25;1.42;;;-4.70;73.10;;;;;;5059338;28;20032;-73
2021/12/26 04:29:53;;;;;;;2.17;1.17;;;-4.70;73.30;;;;;;5042344;28;20040;-73
2021/12/26 04:32:18;;;;;;;3.00;1.40;;;-4.80;72.90;;;;;;5059198;28;20036;-73
2021/12/26 04:34:44;;;;;;;5.53;1.50;;;-4.80;72.90;;;;;;5059026;28;20468;-73
2021/12/26 04:37:10;;;;;;;3.22;1.48;;;-4.80;73.10;;;;;;5058620;28;20556;-73
2021/12/26 04:39:35;;;;;;;5.13;1.85;;;-4.80;72.90;;;;;;5058589;28;20051;-73
2021/12/26 04:42:01;;;;;;;3.88;1.40;;;-4.80;73.00;;;;;;5058862;28;20051;-73
2021/12/26 04:44:28;;;;;;;4.30;1.75;;;-4.70;72.90;;;;;;5058569;28;20046;-73
2021/12/26 04:46:53;;;;;;;3.83;2.15;;;-4.70;72.80;;;;;;5058264;28;20041;-73
2021/12/26 04:49:19;;;;;;;3.97;1.40;;;-4.80;72.60;;;;;;5058536;28;20082;-73
2021/12/26 04:51:45;;;;;;;4.63;1.50;;;-4.70;73.20;;;;;;5057971;28;20043;-73
2021/12/26 04:54:14;;;;;;;4.72;1.45;;;-4.80;72.40;;;;;;5058018;28;20123;-73
2021/12/26 04:56:39;;;;;;;3.40;1.40;;;-4.80;72.50;;;;;;5058130;28;20051;-73
2021/12/26 04:59:05;;;;;;;4.45;1.45;;;-4.70;72.60;;;;;;5041379;28;20033;-73
2021/12/26 05:01:31;;;;;;;3.00;1.20;;;-4.70;72.50;;;;;;5058070;28;20098;-73
2021/12/26 05:03:57;;;;;;;6.32;1.50;;;-4.80;72.10;;;;;;5057595;28;20051;-73
2021/12/26 05:06:23;;;;;;;5.10;1.60;;;-4.70;72.30;;;;;;5058116;28;20041;-73
2021/12/26 05:08:48;;;;;;;2.47;1.25;;;-4.70;72.40;;;;;;5058155;28;20044;-73
2021/12/26 05:11:14;;;;;;;2.53;1.33;;;-4.80;72.40;;;;;;5041418;28;20032;-73
2021/12/26 05:13:39;;;;;;;3.47;1.42;;;-4.70;72.40;;;;;;5057704;28;20411;-72
2021/12/26 05:16:05;;;;;;;3.40;1.38;;;-4.80;72.20;;;;;;5057517;28;20044;-72
2021/12/26 05:18:33;;;;;;;3.10;1.40;;;-4.80;72.50;;;;;;5057682;28;20052;-72
2021/12/26 05:20:59;;;;;;;2.67;1.65;;;-4.80;72.20;;;;;;5057658;28;20071;-73
2021/12/26 05:23:25;;;;;;;4.88;1.52;;;-4.70;72.30;;;;;;5057412;28;20129;-73
2021/12/26 05:25:50;;;;;;;3.13;1.30;;;-4.80;72.20;;;;;;5040998;28;20040;-73
2021/12/26 05:28:16;;;;;;;3.47;1.55;;;-4.70;72.30;;;;;;5057647;28;20068;-72
2021/12/26 05:30:41;;;;;;;5.38;1.38;;;-4.80;72.20;;;;;;5057601;28;20047;-72
2021/12/26 05:33:07;;;;;;;3.47;1.60;;;-4.80;72.10;;;;;;5057384;28;20131;-73
2021/12/26 05:35:33;;;;;;;4.05;1.50;;;-4.70;71.90;;;;;;5040995;28;20508;-73
2021/12/26 05:37:59;;;;;;;4.72;1.50;;;-4.70;71.90;;;;;;5057723;28;20040;-72
2021/12/26 05:40:25;;;;;;;4.03;1.55;;;-4.80;71.80;;;;;;5057544;28;20123;-72
2021/12/26 05:42:50;;;;;;;4.18;1.50;;;-4.70;71.90;;;;;;5057490;28;20086;-73
2021/12/26 05:45:16;;;;;;;3.33;1.38;;;-4.80;72.00;;;;;;5040907;28;20501;-73
2021/12/26 05:47:42;;;;;;;2.70;1.30;;;-4.80;71.90;;;;;;5057295;28;20082;-73
2021/12/26 05:50:11;;;;;;;3.72;1.77;;;-4.70;71.90;;;;;;5057350;28;20169;-73
2021/12/26 05:52:36;;;;;;;4.05;1.10;;;-4.80;71.90;;;;;;5040379;28;20051;-73
2021/12/26 05:55:04;;;;;;;3.53;1.45;;;-4.70;72.10;;;;;;5057603;28;20036;-73
2021/12/26 05:57:29;;;;;;;3.05;1.40;;;-4.70;72.10;;;;;;5057071;28;20466;-73
2021/12/26 05:59:55;;;;;;;2.92;1.58;;;-4.70;72.10;;;;;;5040548;28;20036;-73
2021/12/26 06:02:20;;;;;;;4.63;1.77;;;-4.80;71.90;;;;;;5056905;28;20064;-73
2021/12/26 06:04:46;;;;;;;4.13;1.55;;;-4.80;71.90;;;;;;5056927;28;20043;-73
2021/12/26 06:07:11;;;;;;;3.75;1.40;;;-4.70;71.90;;;;;;5056220;28;20082;-73
2021/12/26 06:09:37;;;;;;;4.15;1.70;;;-4.80;71.30;;;;;;5056361;28;20471;-73
2021/12/26 06:12:03;;;;;;;3.65;1.65;;;-4.80;71.30;;;;;;5039595;28;20032;-73
2021/12/26 06:14:28;;;;;;;2.78;1.52;;;-4.70;71.80;;;;;;5056420;28;20492;-73
2021/12/26 06:16:54;;;;;;;2.45;1.27;;;-4.80;71.80;;;;;;5056858;28;20039;-73
2021/12/26 06:19:20;;;;;;;5.18;1.60;;;-4.80;71.80;;;;;;5056807;28;20101;-73
2021/12/26 06:21:45;;;;;;;3.42;1.50;;;-4.80;71.80;;;;;;5056415;28;20036;-73
2021/12/26 06:24:11;;;;;;;3.20;1.63;;;-4.80;72.20;;;;;;5056766;28;20037;-73
2021/12/26 06:26:37;;;;;;;4.22;1.50;;;-4.80;72.10;;;;;;5056387;28;20064;-73
2021/12/26 06:29:03;;;;;;;2.97;1.50;;;-4.80;72.10;;;;;;5056941;28;20051;-73
2021/12/26 06:31:28;;;;;;;4.60;1.50;;;-4.80;72.20;;;;;;5056310;28;20037;-73
2021/12/26 06:33:54;;;;;;;4.10;1.20;;;-4.80;72.00;;;;;;5039651;28;20066;-73
2021/12/26 06:36:19;;;;;;;7.68;2.17;;;-4.90;72.20;;;;;;5056131;28;20045;-73
2021/12/26 06:38:45;;;;;;;4.68;1.58;;;-4.90;72.30;;;;;;5056567;28;20040;-73
2021/12/26 06:41:12;;;;;;;3.38;1.55;;;-4.90;72.50;;;;;;5039809;28;20131;-73
2021/12/26 06:43:39;;;;;;;3.15;1.70;;;-4.90;72.60;;;;;;5056241;28;20101;-73
2021/12/26 06:46:05;;;;;;;5.28;1.60;;;-4.90;72.80;;;;;;5056464;28;20040;-73
2021/12/26 06:48:32;;;;;;;5.50;1.80;;;-4.90;72.50;;;;;;5056307;28;20072;-73
2021/12/26 06:50:59;;;;;;;3.65;1.73;;;-4.90;72.40;;;;;;5056656;28;20124;-73
2021/12/26 06:53:25;;;;;;;4.93;1.90;;;-4.90;72.40;;;;;;5056535;28;20044;-73
2021/12/26 06:55:51;;;;;;;4.20;1.55;;;-4.90;72.40;;;;;;5057095;28;20040;-73
2021/12/26 06:58:17;;;;;;;4.65;2.05;;;-4.90;72.40;;;;;;5040011;28;20123;-73
2021/12/26 07:00:43;;;;;;;4.03;1.70;;;-4.90;72.40;;;;;;5056398;28;20040;-73
2021/12/26 07:03:09;;;;;;;5.85;1.70;;;-4.90;72.50;;;;;;5040282;28;20040;-73
2021/12/26 07:05:35;;;;;;;3.97;1.60;;;-4.90;72.30;;;;;;5055899;28;20043;-73
2021/12/26 07:08:02;;;;;;;4.03;1.70;;;-4.90;72.40;;;;;;5039644;28;20485;-73
2021/12/26 07:10:27;;;;;;;3.65;1.70;;;-4.90;72.50;;;;;;5039227;28;20044;-73
2021/12/26 07:12:53;;;;;;;4.38;2.00;;;-4.90;72.40;;;;;;5056948;28;20044;-72
2021/12/26 07:15:19;;;;;;;3.60;1.92;;;-4.80;72.70;;;;;;5039126;28;20043;-72
2021/12/26 07:17:45;;;;;;;5.90;2.53;;;-4.90;72.50;;;;;;5055386;28;20040;-73
2021/12/26 07:20:14;;;;;;;3.30;1.88;;;-4.80;72.70;;;;;;5039075;28;20094;-73
2021/12/26 07:22:40;;;;;;;3.92;2.10;;;-4.80;72.70;;;;;;5055259;28;20045;-73
2021/12/26 07:25:07;;;;;;;5.05;2.20;;;-4.80;72.70;;;;;;5055505;28;20032;-71
2021/12/26 07:27:33;;;;;;;6.07;2.30;;;-4.80;72.60;;;;;;5056170;28;20102;-72
2021/12/26 07:30:02;;;;;;;6.07;2.38;;;-4.80;72.60;;;;;;5055153;28;20382;-71
2021/12/26 07:32:28;;;;;;;6.22;2.10;;;-4.80;72.60;;;;;;5054827;28;20045;-72
2021/12/26 07:34:54;;;;;;;5.28;2.28;;;-4.80;72.80;;;;;;5054958;28;20040;-72
2021/12/26 07:37:19;;;;;;;7.70;2.42;;;-4.90;72.60;;;;;;5054933;28;20041;-72
2021/12/26 07:39:45;;;;;;;6.13;2.25;;;-4.80;72.90;;;;;;5038206;28;20037;-72
2021/12/26 07:42:10;;;;;;;5.60;2.58;;;-4.90;72.90;;;;;;5054664;28;20041;-72
2021/12/26 07:44:36;;;;;;;6.18;2.63;;;-4.90;72.90;;;;;;5054766;28;20033;-72
2021/12/26 07:47:05;;;;;;;5.70;2.83;;;-4.90;73.10;;;;;;5055712;28;20090;-72
2021/12/26 07:49:31;;;;;;;8.73;2.70;;;-4.90;73.20;;;;;;5042250;28;20028;-73
2021/12/26 07:51:58;;;;;;;5.03;2.50;;;-4.90;73.40;;;;;;5042333;28;20047;-72
2021/12/26 07:54:24;;;;;;;4.40;2.45;;;-4.90;74.30;;;;;;5059205;28;20070;-73
2021/12/26 07:56:54;;;;;;;4.40;2.70;;;-4.90;73.60;;;;;;5042300;28;20079;-72
2021/12/26 07:59:20;;;;;;;7.03;3.10;;;-4.90;73.90;;;;;;5058863;28;20386;-75
2021/12/26 08:01:47;;;;;;;6.45;2.78;;;-4.90;73.90;;;;;;5058331;28;20501;-74
2021/12/26 08:04:13;;;;;;;5.50;3.15;;;-4.90;73.90;;;;;;5058368;28;20037;-74
2021/12/26 08:06:40;;;;;;;5.63;2.38;;;-4.80;74.10;;;;;;5058201;28;20086;-74
2021/12/26 08:09:06;;;;;;;4.93;2.35;;;-4.90;74.10;;;;;;5058277;28;20115;-74
2021/12/26 08:11:33;;;;;;;5.97;2.67;;;-4.80;73.80;;;;;;5041360;28;20072;-75
2021/12/26 08:13:59;;;;;;;8.55;3.00;;;-4.80;74.00;;;;;;5058034;28;20435;-74
2021/12/26 08:16:26;;;;;;;4.85;2.70;;;-4.80;73.90;;;;;;5058319;28;20511;-75
2021/12/26 08:18:52;;;;;;;4.55;2.30;;;-4.70;73.80;;;;;;5041589;28;20055;-75
2021/12/26 08:21:17;;;;;;;6.18;2.60;;;-4.70;73.80;;;;;;5057873;28;20040;-75
2021/12/26 08:23:43;;;;;;;5.05;2.50;;;-4.80;73.50;;;;;;5057724;28;20044;-74
2021/12/26 08:26:08;;;;;;;6.40;2.38;;;-4.80;73.60;;;;;;5041270;28;20063;-75
2021/12/26 08:28:34;;;;;;;7.45;3.00;;;-4.80;73.50;;;;;;5057938;28;20040;-75
2021/12/26 08:31:00;;;;;;;5.13;2.78;;;-4.70;73.60;;;;;;5057785;28;20518;-75
2021/12/26 08:33:26;;;;;;;6.85;3.17;;;-4.70;73.50;;;;;;5041006;28;20044;-75
2021/12/26 08:35:52;;;;;;;5.50;3.00;;;-4.70;73.50;;;;;;5041215;28;20047;-76
2021/12/26 08:38:21;;;;;;;5.95;3.05;;;-4.60;73.40;;;;;;5057769;28;20043;-75
2021/12/26 08:40:48;;;;;;;8.55;2.95;;;-4.60;73.40;;;;;;5057599;28;20540;-75
2021/12/26 08:43:15;;;;;;;5.70;2.70;;;-4.60;73.40;;;;;;5057442;28;20511;-74
2021/12/26 08:45:41;;;;;;;5.78;3.05;;;-4.60;73.40;;;;;;5057726;28;20382;-74
2021/12/26 08:48:07;;;;;;;6.63;3.08;;;-4.50;73.00;;;;;;5058629;28;20132;-75
2021/12/26 08:50:32;;;;;;;6.93;3.53;;;-4.50;73.10;;;;;;5041117;28;20500;-75
2021/12/26 08:52:59;;;;;;;6.80;3.40;;;-4.40;72.50;;;;;;5057603;28;20043;-76
2021/12/26 08:55:25;;;;;;;6.93;3.15;;;-4.40;72.20;;;;;;5057696;28;20047;-75
2021/12/26 08:57:53;;;;;;;6.85;3.03;;;-4.30;72.50;;;;;;5057324;28;20068;-76
2021/12/26 09:00:20;;;;;;;9.98;3.63;;;-4.30;72.50;;;;;;5057465;28;20572;-75
2021/12/26 09:02:45;;;;;;;6.72;3.20;;;-4.20;72.00;;;;;;5057417;28;20086;-75
2021/12/26 09:05:12;;;;;;;6.07;2.70;;;-4.20;71.70;;;;;;5041592;28;20045;-75
2021/12/26 09:07:39;;;;;;;6.32;3.67;;;-4.10;71.70;;;;;;5058211;28;20043;-74
2021/12/26 09:10:08;;;;;;;6.57;2.75;;;-4.10;71.40;;;;;;5057871;28;20045;-75
2021/12/26 09:12:34;;;;;;;5.38;2.95;;;-4.00;71.30;;;;;;5057322;28;20048;-75
2021/12/26 09:14:59;;;;;;;5.68;2.80;;;-4.00;71.30;;;;;;5057441;28;20123;-75
2021/12/26 09:17:25;;;;;;;5.35;2.78;;;-3.90;71.10;;;;;;5057312;28;20076;-74
2021/12/26 09:19:51;;;;;;;4.13;2.42;;;-3.80;71.20;;;;;;5040850;28;20037;-75
2021/12/26 09:22:17;;;;;;;5.72;3.33;;;-3.80;70.90;;;;;;5056927;28;20540;-75
2021/12/26 09:24:45;;;;;;;7.75;3.03;;;-3.70;70.60;;;;;;5040428;28;20556;-74
2021/12/26 09:27:12;;;;;;;4.13;2.58;;;-3.60;70.40;;;;;;5040732;28;20068;-74
2021/12/26 09:29:38;;;;;;;6.53;2.95;;;-3.60;69.90;;;;;;5057128;28;20562;-75
2021/12/26 09:32:04;;;;;;;4.72;2.78;;;-3.50;70.10;;;;;;5057054;28;20041;-73
2021/12/26 09:34:33;;;;;;;7.07;2.78;;;-3.50;69.90;;;;;;5057051;28;20032;-74
2021/12/26 09:37:00;;;;;;;5.40;3.00;;;-3.40;70.00;;;;;;5056944;28;20033;-73
2021/12/26 09:39:26;;;;;;;4.47;2.80;;;-3.40;70.00;;;;;;5056941;28;20060;-74
2021/12/26 09:41:52;;;;;;;7.68;3.28;;;-3.30;70.00;;;;;;5056420;28;20397;-74
2021/12/26 09:44:19;;;;;;;7.05;2.95;;;-3.30;70.10;;;;;;5056599;28;20091;-74
2021/12/26 09:46:45;;;;;;;4.85;2.42;;;-3.30;69.90;;;;;;5056570;28;20032;-74
2021/12/26 09:49:11;;;;;;;4.97;2.80;;;-3.20;69.70;;;;;;5056436;28;20036;-74
2021/12/26 09:51:36;;;;;;;5.55;2.92;;;-3.10;69.70;;;;;;5056748;28;20032;-74
2021/12/26 09:54:04;;;;;;;8.10;3.20;;;-3.00;69.80;;;;;;5056691;28;20408;-74
2021/12/26 09:56:30;;;;;;;5.55;3.15;;;-3.00;69.80;;;;;;5040301;28;20170;-74
2021/12/26 09:58:57;;;;;;;4.63;2.67;;;-3.00;69.50;;;;;;5056473;28;20076;-74
2021/12/26 10:01:37;;;;;;;6.72;2.95;;;-2.90;69.30;;;;;;5056533;28;20051;-73
2021/12/26 10:04:17;;;;;;;6.47;2.70;;;-2.80;69.30;;;;;;5057304;28;20040;-73
2021/12/26 10:06:46;;;;;;;5.07;2.70;;;-2.70;69.50;;;;;;5056538;28;20515;-74
2021/12/26 10:09:12;;;;;;;5.13;2.60;;;-2.70;69.40;;;;;;5055951;28;20050;-74
2021/12/26 10:11:41;;;;;;;5.18;2.92;;;-2.60;69.00;;;;;;5056224;28;20037;-75
2021/12/26 10:14:15;;;;;;;5.93;2.88;;;-2.50;69.00;;;;;;5056330;28;20040;-74
2021/12/26 10:16:52;;;;;;;4.80;2.63;;;-2.40;68.90;;;;;;5056446;28;20052;-74
2021/12/26 10:19:18;;;;;;;4.80;2.67;;;-2.40;68.70;;;;;;5056170;28;20097;-74
2021/12/26 10:21:47;;;;;;;5.22;2.70;;;-2.30;68.80;;;;;;5056202;28;20045;-74
2021/12/26 10:24:14;;;;;;;5.90;2.95;;;-2.30;69.00;;;;;;5056370;28;20033;-73
2021/12/26 10:26:43;;;;;;;4.63;2.95;;;-2.20;69.00;;;;;;5056467;28;20032;-74
2021/12/26 10:29:18;;;;;;;4.63;2.80;;;-2.10;68.90;;;;;;5056090;28;20037;-74
2021/12/26 10:31:48;;;;;;;6.35;2.80;;;-2.10;68.60;;;;;;5056627;28;20036;-74
2021/12/26 10:34:19;;;;;;;6.30;2.83;;;-2.00;68.80;;;;;;5056386;28;20416;-75
2021/12/26 10:36:47;;;;;;;5.72;3.15;;;-2.00;68.70;;;;;;5055920;28;20040;-74
2021/12/26 10:39:18;;;;;;;5.35;2.83;;;-1.90;68.80;;;;;;5055602;28;20041;-74
2021/12/26 10:41:48;;;;;;;6.53;4.05;;;-1.80;68.80;;;;;;5056538;28;20386;-74
2021/12/26 10:44:32;;;;;;;5.15;2.97;;;-1.70;68.90;;;;;;5039370;28;20047;-75
2021/12/26 10:47:04;;;;;;;4.53;2.58;;;-1.60;69.10;;;;;;5055385;28;20055;-76
2021/12/26 10:49:51;;;;;;;6.05;2.83;;;-1.60;68.90;;;;;;5055628;28;20043;-76
2021/12/26 10:52:23;;;;;;;4.85;2.67;;;-1.60;68.60;;;;;;5039198;28;20504;-75
2021/12/26 10:54:53;;;;;;;5.20;2.97;;;-1.50;69.10;;;;;;5038631;28;20037;-75
2021/12/26 10:57:34;;;;;;;7.70;3.10;;;-1.50;69.20;;;;;;5055576;28;20488;-76
2021/12/26 11:00:11;;;;;;;5.25;2.83;;;-1.40;69.20;;;;;;5038718;28;20028;-75
2021/12/26 11:02:40;;;;;;;6.28;3.22;;;-1.30;69.00;;;;;;5038517;28;20165;-75
2021/12/26 11:05:12;;;;;;;4.88;2.50;;;-1.20;69.50;;;;;;5038696;28;20032;-75
2021/12/26 11:07:47;;;;;;;4.57;2.83;;;-1.10;69.80;;;;;;5055396;28;20083;-75
2021/12/26 11:10:20;;;;;;;5.18;3.22;;;-1.00;69.30;;;;;;5055061;28;20033;-75
2021/12/26 11:12:51;;;;;;;5.57;3.17;;;-0.90;69.30;;;;;;5055375;28;20043;-75
2021/12/26 11:15:19;;;;;;;5.18;2.78;;;-0.80;69.30;;;;;;5038448;28;20412;-76
2021/12/26 11:17:52;;;;;;;4.95;2.95;;;-0.70;68.90;;;;;;5055059;28;20139;-75
2021/12/26 11:20:25;;;;;;;5.70;3.10;;;-0.50;68.70;;;;;;5055066;28;20055;-76
2021/12/26 11:22:51;;;;;;;4.18;2.70;;;-0.30;68.70;;;;;;5059049;28;20037;-76
2021/12/26 11:25:17;;;;;;;5.82;2.97;;;0.30;68.40;;;;;;5059220;28;20050;-75
2021/12/26 11:27:43;;;;;;;5.47;3.33;;;1.20;67.20;;;;;;5059025;28;20115;-76
2021/12/26 11:30:10;;;;;;;6.68;2.92;;;2.10;65.80;;;;;;5059232;28;20090;-76
2021/12/26 11:32:36;;;;;;;5.75;3.40;;;3.20;63.00;;;;;;5042530;28;20044;-75
2021/12/26 11:35:04;;;;;;;8.35;3.45;;;3.90;60.30;;;;;;5059009;28;20044;-76
2021/12/26 11:37:30;;;;;;;6.05;3.17;;;4.20;59.00;;;;;;5059307;28;20037;-75
2021/12/26 11:39:57;;;;;;;4.85;3.17;;;4.60;58.80;;;;;;5042495;28;20424;-76
2021/12/26 11:42:45;;;;;;;5.75;3.38;;;5.40;57.60;;;;;;5058661;28;20048;-76
2021/12/26 11:45:19;;;;;;;5.20;3.00;;;5.90;54.90;;;;;;5059141;28;20037;-76
2021/12/26 11:48:11;;;;;;;4.90;3.13;;;6.00;55.60;;;;;;5058748;28;20049;-76
2021/12/26 11:50:52;;;;;;;6.05;3.40;;;5.80;55.00;;;;;;5042392;28;20043;-76
2021/12/26 11:53:34;;;;;;;5.00;3.33;;;5.70;53.90;;;;;;5058773;28;20064;-76
2021/12/26 11:56:13;;;;;;;6.00;3.20;;;5.90;54.90;;;;;;5042276;28;20091;-76
2021/12/26 11:59:04;;;;;;;4.43;3.28;;;6.10;54.80;;;;;;5058686;28;20552;-76
2021/12/26 12:01:31;;;;;;;6.93;3.50;;;5.90;55.10;;;;;;5058434;28;20047;-76
2021/12/26 12:04:10;;;;;;;5.82;3.05;;;5.70;55.20;;;;;;5058441;28;20124;-76
2021/12/26 12:06:36;;;;;;;5.60;3.30;;;5.80;54.70;;;;;;5041800;28;20133;-76
2021/12/26 12:09:38;;;;;;;5.45;3.25;;;5.90;55.10;;;;;;5058371;28;20083;-77
2021/12/26 12:12:12;;;;;;;4.47;2.67;;;6.00;54.00;;;;;;5041575;28;20583;-77
2021/12/26 12:14:58;;;;;;;4.72;3.35;;;6.30;54.60;;;;;;5041885;28;20036;-76
2021/12/26 12:17:30;;;;;;;5.63;3.20;;;7.00;52.20;;;;;;5058385;28;20524;-76
2021/12/26 12:20:10;;;;;;;5.70;2.95;;;7.30;53.00;;;;;;5041809;28;20094;-75
2021/12/26 12:22:37;;;;;;;5.95;3.38;;;7.50;52.00;;;;;;5057867;28;20482;-75
2021/12/26 12:25:41;;;;;;;4.72;3.30;;;7.40;52.90;;;;;;5057916;28;20043;-75
2021/12/26 12:28:14;;;;;;;4.47;3.40;;;7.30;50.90;;;;;;5041685;28;20055;-75
2021/12/26 12:30:42;;;;;;;4.35;3.25;;;7.70;51.90;;;;;;5041348;28;20496;-75
2021/12/26 12:33:28;;;;;;;5.68;3.17;;;8.30;51.10;;;;;;5040168;28;20072;-77
2021/12/26 12:36:31;;;;;;;5.97;3.10;;;8.70;48.90;;;;;;5058047;28;20048;-76
2021/12/26 12:39:14;;;;;;;5.90;3.30;;;8.90;47.30;;;;;;5040993;28;20098;-76
2021/12/26 12:41:46;;;;;;;4.95;3.35;;;9.70;47.40;;;;;;5041139;28;20049;-75
2021/12/26 12:44:32;;;;;;;4.88;3.20;;;10.50;46.50;;;;;;5057754;28;20040;-75
2021/12/26 12:47:04;;;;;;;5.28;3.28;;;11.10;44.80;;;;;;5057593;28;20029;-76
2021/12/26 12:49:54;;;;;;;5.15;3.28;;;11.40;44.60;;;;;;5057745;28;20507;-76
2021/12/26 12:52:41;;;;;;;5.07;3.40;;;11.40;43.90;;;;;;5057732;28;20044;-76
2021/12/26 12:55:10;;;;;;;4.97;3.45;;;11.30;43.40;;;;;;5057563;28;20040;-76
2021/12/26 12:57:42;;;;;;;5.10;3.55;;;11.00;45.40;;;;;;5057567;28;20468;-76